Time;durP1;ratioP1;P1;durP2;ratioP2;P2;SDS_P1;SDS_P2;PMS_P1;PMS_P2;Temp;Humidity;BMP_temperature;BMP_pressure;BME280_temperature;BME280_humidity;BME280_pressure;Samples;Min_cycle;Max_cycle;Signal;HPM_P1;HPM_P2
2024/04/03 00:00:44;;;;;;;7.47;3.53;;;12.90;99.90;;;;;;5089630;28;20422;-76
2024/04/03 00:03:11;;;;;;;5.30;3.28;;;12.90;99.90;;;;;;5089393;27;20043;-76
2024/04/03 00:05:37;;;;;;;10.68;4.18;;;12.90;99.90;;;;;;5107644;28;20023;-75
2024/04/03 00:08:04;;;;;;;10.95;3.88;;;12.80;99.90;;;;;;5109468;27;20495;-75
2024/04/03 00:10:30;;;;;;;10.77;4.18;;;12.80;99.90;;;;;;5107851;27;20897;-76
2024/04/03 00:12:56;;;;;;;10.90;4.05;;;12.90;99.90;;;;;;5108405;27;20123;-76
2024/04/03 00:15:22;;;;;;;11.20;4.45;;;12.80;99.90;;;;;;5107742;27;20099;-75
2024/04/03 00:17:50;;;;;;;10.55;3.95;;;12.80;99.90;;;;;;5089536;27;20472;-76
2024/04/03 00:20:16;;;;;;;8.35;3.85;;;12.80;99.90;;;;;;5107185;28;20047;-75
2024/04/03 00:22:42;;;;;;;9.30;4.63;;;12.80;99.90;;;;;;5108426;27;20024;-76
2024/04/03 00:25:07;;;;;;;9.48;3.28;;;12.80;99.90;;;;;;5107700;27;20049;-75
2024/04/03 00:27:34;;;;;;;12.77;4.00;;;12.80;99.90;;;;;;5107887;27;20028;-75
2024/04/03 00:29:59;;;;;;;13.82;4.18;;;12.80;99.90;;;;;;5108264;27;20424;-75
2024/04/03 00:32:25;;;;;;;8.90;3.65;;;12.80;99.90;;;;;;5107770;27;20028;-76
2024/04/03 00:34:54;;;;;;;12.10;3.17;;;12.90;99.90;;;;;;5107677;27;20106;-76
2024/04/03 00:37:21;;;;;;;10.20;3.90;;;12.90;99.90;;;;;;5107071;27;20023;-76
2024/04/03 00:39:47;;;;;;;8.82;2.67;;;12.90;99.90;;;;;;5106518;27;20476;-76
2024/04/03 00:42:12;;;;;;;7.47;3.47;;;12.90;99.90;;;;;;5107978;27;20016;-75
2024/04/03 00:44:46;;;;;;;5.68;3.25;;;12.90;99.90;;;;;;5106416;27;20054;-75
2024/04/03 00:47:12;;;;;;;7.32;2.88;;;12.90;99.90;;;;;;5107617;27;20024;-75
2024/04/03 00:49:38;;;;;;;8.90;3.42;;;13.00;99.90;;;;;;5106892;27;20072;-75
2024/04/03 00:52:04;;;;;;;11.88;3.75;;;13.00;99.90;;;;;;5106982;27;20106;-75
2024/04/03 00:54:30;;;;;;;13.13;3.88;;;13.00;99.90;;;;;;5106741;27;20057;-75
2024/04/03 00:56:56;;;;;;;7.07;3.22;;;12.90;99.90;;;;;;5108109;27;20027;-75
2024/04/03 00:59:22;;;;;;;9.93;3.50;;;12.90;99.90;;;;;;5106344;28;20047;-74
2024/04/03 01:01:49;;;;;;;10.95;3.80;;;12.80;99.90;;;;;;5106028;27;20372;-75
2024/04/03 01:04:14;;;;;;;9.48;3.70;;;12.80;99.90;;;;;;5105802;27;20028;-75
2024/04/03 01:06:40;;;;;;;10.35;3.55;;;12.80;99.90;;;;;;5107460;27;20458;-75
2024/04/03 01:09:06;;;;;;;10.70;4.40;;;12.80;99.90;;;;;;5107022;27;20036;-74
2024/04/03 01:11:32;;;;;;;6.22;3.13;;;12.80;99.90;;;;;;5106389;28;20145;-75
2024/04/03 01:13:58;;;;;;;13.35;3.60;;;12.80;99.90;;;;;;5106617;27;20042;-75
2024/04/03 01:16:23;;;;;;;10.65;3.80;;;12.80;99.90;;;;;;5106656;27;20020;-74
2024/04/03 01:18:49;;;;;;;13.32;3.45;;;12.70;99.90;;;;;;5086637;28;20027;-75
2024/04/03 01:21:15;;;;;;;10.02;3.90;;;12.80;99.90;;;;;;5106087;28;23149;-75
2024/04/03 01:23:40;;;;;;;8.88;3.45;;;12.70;99.90;;;;;;5106345;27;20027;-75
2024/04/03 01:26:06;;;;;;;10.93;3.63;;;12.70;99.90;;;;;;5106375;27;20046;-74
2024/04/03 01:28:34;;;;;;;16.15;4.00;;;12.80;99.90;;;;;;5106162;28;20406;-74
2024/04/03 01:31:00;;;;;;;8.50;3.63;;;12.80;99.90;;;;;;5088331;28;20020;-74
2024/04/03 01:33:25;;;;;;;7.78;3.58;;;12.70;99.90;;;;;;5106161;27;20084;-75
2024/04/03 01:35:51;;;;;;;9.57;4.03;;;12.70;99.90;;;;;;5106995;28;20027;-74
2024/04/03 01:38:17;;;;;;;17.13;3.75;;;12.70;99.90;;;;;;5105410;28;20019;-74
2024/04/03 01:40:42;;;;;;;12.23;3.97;;;12.70;99.90;;;;;;5106488;27;20035;-74
2024/04/03 01:43:08;;;;;;;11.25;3.78;;;12.80;99.90;;;;;;5106205;28;20042;-74
2024/04/03 01:45:34;;;;;;;13.25;3.03;;;12.80;99.90;;;;;;5106170;27;20656;-75
2024/04/03 01:47:59;;;;;;;12.25;3.60;;;12.80;99.90;;;;;;5088121;28;20550;-75
2024/04/03 01:50:39;;;;;;;9.25;3.08;;;12.70;99.90;;;;;;5088415;28;20015;-75
2024/04/03 01:53:05;;;;;;;10.55;3.65;;;12.60;99.90;;;;;;5104906;28;20496;-75
2024/04/03 01:55:31;;;;;;;12.75;3.17;;;12.60;99.90;;;;;;5106872;27;20023;-75
2024/04/03 01:57:57;;;;;;;6.90;3.47;;;12.60;99.90;;;;;;5106658;28;20050;-75
2024/04/03 02:00:23;;;;;;;11.93;3.50;;;12.40;99.90;;;;;;5106403;27;20070;-75
2024/04/03 02:02:49;;;;;;;8.80;3.90;;;12.40;99.90;;;;;;5105808;28;20024;-75
2024/04/03 02:05:15;;;;;;;11.63;3.53;;;12.50;99.90;;;;;;5104755;28;20115;-74
2024/04/03 02:07:40;;;;;;;13.65;3.53;;;12.50;99.90;;;;;;5105201;28;20361;-75
2024/04/03 02:10:06;;;;;;;11.50;3.90;;;12.40;99.90;;;;;;5107430;28;20028;-75
2024/04/03 02:12:32;;;;;;;12.77;3.60;;;12.50;99.90;;;;;;5105973;28;20024;-75
2024/04/03 02:14:58;;;;;;;9.38;3.08;;;12.40;99.90;;;;;;5107558;27;20023;-75
2024/04/03 02:17:23;;;;;;;7.82;2.90;;;12.50;99.90;;;;;;5110292;27;20492;-75
2024/04/03 02:19:49;;;;;;;8.25;3.05;;;12.50;99.90;;;;;;5110912;27;20479;-74
2024/04/03 02:22:15;;;;;;;11.32;3.20;;;12.60;99.90;;;;;;5109442;27;23202;-75
2024/04/03 02:24:41;;;;;;;9.20;3.47;;;12.60;99.90;;;;;;5091338;27;20103;-75
2024/04/03 02:27:07;;;;;;;15.80;3.53;;;12.60;99.90;;;;;;5109953;27;20544;-74
2024/04/03 02:29:33;;;;;;;12.13;3.70;;;12.60;99.90;;;;;;5091591;27;20032;-75
2024/04/03 02:31:58;;;;;;;15.73;3.78;;;12.60;99.90;;;;;;5109925;27;20034;-75
2024/04/03 02:34:24;;;;;;;10.25;3.17;;;12.70;99.90;;;;;;5108987;27;20023;-75
2024/04/03 02:36:50;;;;;;;10.25;3.17;;;12.70;99.90;;;;;;5091089;28;20188;-75
2024/04/03 02:39:15;;;;;;;8.00;3.22;;;12.60;99.90;;;;;;5110199;27;20027;-75
2024/04/03 02:41:41;;;;;;;14.38;3.90;;;12.60;99.90;;;;;;5091224;28;20428;-75
2024/04/03 02:44:07;;;;;;;11.52;2.88;;;12.60;99.90;;;;;;5109048;28;20026;-75
2024/04/03 02:46:33;;;;;;;16.23;3.75;;;12.60;99.90;;;;;;5091526;28;20046;-75
2024/04/03 02:48:58;;;;;;;10.25;3.10;;;12.60;99.90;;;;;;5111095;27;20020;-74
2024/04/03 02:51:24;;;;;;;11.27;3.55;;;12.60;99.90;;;;;;5109480;27;20059;-75
2024/04/03 02:53:50;;;;;;;8.25;3.35;;;12.60;99.90;;;;;;5110754;27;20061;-75
2024/04/03 02:56:16;;;;;;;7.43;3.17;;;12.60;99.90;;;;;;5109965;27;20035;-76
2024/04/03 02:58:42;;;;;;;9.20;2.78;;;12.60;99.90;;;;;;5108806;27;20027;-75
2024/04/03 03:01:09;;;;;;;6.20;2.78;;;12.50;99.90;;;;;;5109410;27;20035;-75
2024/04/03 03:03:36;;;;;;;9.63;2.75;;;12.50;99.90;;;;;;5089949;28;20024;-74
2024/04/03 03:06:06;;;;;;;7.65;2.67;;;12.50;99.90;;;;;;5091064;27;20035;-75
2024/04/03 03:08:33;;;;;;;11.43;3.70;;;12.40;99.90;;;;;;5109964;27;20023;-74
2024/04/03 03:11:00;;;;;;;9.00;3.45;;;12.50;99.90;;;;;;5109964;27;20035;-74
2024/04/03 03:13:27;;;;;;;7.05;3.22;;;12.50;99.90;;;;;;5109390;27;20079;-74
2024/04/03 03:16:01;;;;;;;11.95;3.83;;;12.50;99.90;;;;;;5109089;27;20455;-75
2024/04/03 03:18:29;;;;;;;12.60;4.55;;;12.50;99.90;;;;;;5108939;27;20031;-75
2024/04/03 03:20:55;;;;;;;16.63;4.78;;;12.30;99.90;;;;;;5090888;28;20115;-74
2024/04/03 03:23:20;;;;;;;10.82;4.40;;;12.30;99.90;;;;;;5109200;27;20137;-74
2024/04/03 03:25:48;;;;;;;11.18;3.70;;;12.30;99.90;;;;;;5109485;27;20059;-74
2024/04/03 03:28:14;;;;;;;9.05;4.10;;;12.30;99.90;;;;;;5109124;27;20482;-75
2024/04/03 03:30:41;;;;;;;11.07;4.25;;;12.30;99.90;;;;;;5109502;28;20016;-75
2024/04/03 03:33:06;;;;;;;11.20;5.72;;;12.30;99.90;;;;;;5091036;28;20110;-74
2024/04/03 03:35:32;;;;;;;18.17;5.40;;;12.30;99.90;;;;;;5110342;27;20597;-74
2024/04/03 03:37:58;;;;;;;8.85;4.82;;;12.30;99.90;;;;;;5089115;28;20027;-73
2024/04/03 03:40:26;;;;;;;13.05;5.22;;;12.30;99.90;;;;;;5108863;27;20034;-74
2024/04/03 03:42:51;;;;;;;13.13;5.13;;;12.20;99.90;;;;;;5107496;27;20081;-74
2024/04/03 03:45:19;;;;;;;9.75;5.05;;;12.20;99.90;;;;;;5089791;27;20451;-74
2024/04/03 03:47:46;;;;;;;15.43;5.28;;;12.20;99.90;;;;;;5109512;27;20149;-74
2024/04/03 03:52:57;;;;;;;19.13;5.85;;;12.20;99.90;;;;;;5108164;27;20442;-74
2024/04/03 03:55:27;;;;;;;21.85;7.25;;;12.30;99.90;;;;;;5109015;27;20023;-75
2024/04/03 03:57:52;;;;;;;13.73;4.95;;;12.20;99.90;;;;;;5088624;28;20024;-75
2024/04/03 04:00:19;;;;;;;8.70;4.85;;;12.00;99.90;;;;;;5107711;27;20028;-75
2024/04/03 04:02:44;;;;;;;12.35;5.40;;;12.00;99.90;;;;;;5107743;27;20027;-74
2024/04/03 04:05:10;;;;;;;19.85;8.35;;;12.10;99.90;;;;;;5107481;27;20024;-74
2024/04/03 04:07:35;;;;;;;14.15;5.30;;;12.10;99.90;;;;;;5089285;28;20379;-74
2024/04/03 04:10:01;;;;;;;13.80;5.75;;;12.00;99.90;;;;;;5109317;27;20480;-74
2024/04/03 04:12:27;;;;;;;11.88;4.85;;;12.00;99.90;;;;;;5108666;27;20112;-74
2024/04/03 04:14:53;;;;;;;11.07;4.50;;;12.10;99.90;;;;;;5109014;27;20121;-74
2024/04/03 04:17:22;;;;;;;11.52;4.45;;;12.10;99.90;;;;;;5106564;27;20041;-74
2024/04/03 04:19:49;;;;;;;10.35;4.20;;;12.20;99.90;;;;;;5108214;27;20483;-74
2024/04/03 04:22:15;;;;;;;11.65;4.47;;;12.20;99.90;;;;;;5107555;27;20016;-74
2024/04/03 04:24:44;;;;;;;8.85;4.13;;;12.20;99.90;;;;;;5108232;27;20556;-74
2024/04/03 04:27:11;;;;;;;11.45;4.30;;;12.20;99.90;;;;;;5106347;27;20020;-74
2024/04/03 04:29:37;;;;;;;14.63;5.80;;;12.20;99.90;;;;;;5108716;27;20031;-74
2024/04/03 04:32:06;;;;;;;15.25;4.82;;;12.20;99.90;;;;;;5108385;27;20148;-74
2024/04/03 04:34:32;;;;;;;13.07;5.00;;;12.10;99.90;;;;;;5088546;28;20028;-74
2024/04/03 04:36:58;;;;;;;12.93;4.85;;;12.00;99.90;;;;;;5107396;27;20361;-74
2024/04/03 04:39:24;;;;;;;12.43;4.78;;;12.00;99.90;;;;;;5106702;27;20472;-74
2024/04/03 04:41:50;;;;;;;18.95;5.63;;;12.00;99.90;;;;;;5107534;27;20515;-74
2024/04/03 04:44:17;;;;;;;14.23;5.40;;;11.90;99.90;;;;;;5106840;28;20110;-74
2024/04/03 04:46:46;;;;;;;9.55;3.95;;;11.80;99.90;;;;;;5106771;27;20099;-74
2024/04/03 04:49:12;;;;;;;12.25;4.32;;;11.80;99.90;;;;;;5107801;27;20075;-74
2024/04/03 04:51:38;;;;;;;10.75;4.10;;;11.70;99.90;;;;;;5108373;27;20024;-74
2024/04/03 04:54:03;;;;;;;10.95;4.05;;;11.90;99.90;;;;;;5108879;27;20500;-74
2024/04/03 04:56:29;;;;;;;14.95;4.82;;;11.90;99.90;;;;;;5107302;27;20423;-74
2024/04/03 04:58:55;;;;;;;8.48;4.03;;;11.90;99.90;;;;;;5088943;28;20035;-74
2024/04/03 05:01:21;;;;;;;13.50;4.40;;;11.90;99.90;;;;;;5106063;28;20072;-74
2024/04/03 05:03:47;;;;;;;10.98;4.35;;;11.90;99.90;;;;;;5089305;27;20031;-74
2024/04/03 05:06:17;;;;;;;11.93;3.13;;;11.90;99.90;;;;;;5107921;27;20108;-74
2024/04/03 05:08:43;;;;;;;9.38;3.97;;;11.90;99.90;;;;;;5111584;27;20031;-74
2024/04/03 05:11:09;;;;;;;10.23;4.03;;;11.90;99.90;;;;;;5089562;28;20023;-74
2024/04/03 05:13:35;;;;;;;14.93;4.13;;;11.90;99.90;;;;;;5088589;28;20043;-74
2024/04/03 05:16:08;;;;;;;13.65;4.03;;;11.90;99.90;;;;;;5106415;27;20024;-74
2024/04/03 05:18:35;;;;;;;10.65;4.18;;;11.90;99.90;;;;;;5105826;27;20054;-74
2024/04/03 05:21:01;;;;;;;13.60;4.07;;;12.00;99.90;;;;;;5106167;27;20027;-74
2024/04/03 05:23:27;;;;;;;13.13;4.20;;;12.00;99.90;;;;;;5106366;27;20020;-74
2024/04/03 05:26:00;;;;;;;12.52;3.90;;;12.00;99.90;;;;;;5089748;27;20016;-74
2024/04/03 05:28:26;;;;;;;13.00;4.53;;;12.00;99.90;;;;;;5107006;28;20028;-74
2024/04/03 05:30:53;;;;;;;13.73;4.82;;;12.00;99.90;;;;;;5106681;27;20042;-74
2024/04/03 05:33:20;;;;;;;13.07;4.47;;;12.00;99.90;;;;;;5087267;28;20034;-73
2024/04/03 05:35:59;;;;;;;11.52;4.95;;;11.90;99.90;;;;;;5107243;27;20019;-74
2024/04/03 05:38:26;;;;;;;12.68;5.07;;;11.90;99.90;;;;;;5087753;28;20470;-74
2024/04/03 05:40:52;;;;;;;12.73;4.70;;;12.00;99.90;;;;;;5106546;27;20031;-74
2024/04/03 05:43:18;;;;;;;16.83;5.68;;;11.90;99.90;;;;;;5106556;27;20047;-74
2024/04/03 05:45:44;;;;;;;14.52;4.82;;;11.90;99.90;;;;;;5107261;27;20530;-74
2024/04/03 05:48:10;;;;;;;15.40;5.00;;;11.90;99.90;;;;;;5107413;28;20020;-74
2024/04/03 05:50:36;;;;;;;12.90;5.00;;;11.90;99.90;;;;;;5086891;28;20028;-74
2024/04/03 05:53:02;;;;;;;14.52;5.30;;;12.00;99.90;;;;;;5106922;28;20556;-74
2024/04/03 05:55:28;;;;;;;11.02;4.53;;;12.00;99.90;;;;;;5088000;28;20049;-74
2024/04/03 05:57:54;;;;;;;6.88;4.35;;;12.00;99.90;;;;;;5105458;27;20063;-74
2024/04/03 06:00:22;;;;;;;13.32;4.15;;;12.00;99.90;;;;;;5087458;28;20044;-74
2024/04/03 06:02:48;;;;;;;13.70;3.60;;;12.00;99.90;;;;;;5130129;27;20020;-74
2024/04/03 06:05:14;;;;;;;13.38;3.90;;;12.00;99.90;;;;;;5132594;28;20030;-75
2024/04/03 06:07:40;;;;;;;8.70;3.55;;;12.10;99.90;;;;;;5132242;28;20011;-75
2024/04/03 06:10:07;;;;;;;11.05;4.47;;;11.90;99.90;;;;;;5113740;28;20390;-75
2024/04/03 06:12:32;;;;;;;11.23;4.38;;;12.00;99.90;;;;;;5114092;28;20011;-74
2024/04/03 06:14:58;;;;;;;13.13;4.85;;;12.00;99.90;;;;;;5125786;28;20019;-75
2024/04/03 06:17:24;;;;;;;12.10;3.58;;;12.10;99.90;;;;;;5127292;28;20015;-74
2024/04/03 06:19:50;;;;;;;11.50;4.07;;;12.10;99.90;;;;;;5130499;28;20084;-75
2024/04/03 06:22:16;;;;;;;9.52;3.50;;;12.10;99.90;;;;;;5132522;28;20023;-75
2024/04/03 06:24:42;;;;;;;10.02;4.30;;;12.10;99.90;;;;;;5132782;28;20468;-74
2024/04/03 06:27:08;;;;;;;6.95;3.78;;;12.20;99.90;;;;;;5132234;28;20026;-75
2024/04/03 06:29:34;;;;;;;11.93;3.92;;;12.10;99.90;;;;;;5130309;28;20039;-76
2024/04/03 06:32:01;;;;;;;7.95;3.80;;;12.20;99.90;;;;;;5116439;28;20044;-75
2024/04/03 06:34:27;;;;;;;7.95;3.05;;;12.10;99.90;;;;;;5127312;28;20016;-75
2024/04/03 06:36:53;;;;;;;7.60;3.13;;;12.20;99.90;;;;;;5105119;28;20024;-75
2024/04/03 06:39:19;;;;;;;7.93;3.53;;;12.10;99.90;;;;;;5115299;28;20388;-75
2024/04/03 06:41:45;;;;;;;9.45;3.47;;;12.10;99.90;;;;;;5113724;28;20121;-75
2024/04/03 06:44:11;;;;;;;10.57;3.50;;;12.10;99.90;;;;;;5096843;28;20171;-75
2024/04/03 06:46:36;;;;;;;10.20;3.60;;;12.20;99.90;;;;;;5096204;28;20169;-74
2024/04/03 06:49:02;;;;;;;9.45;3.70;;;12.20;99.90;;;;;;5116176;28;20154;-75
2024/04/03 06:51:29;;;;;;;6.57;3.33;;;12.30;99.90;;;;;;5128933;28;20042;-74
2024/04/03 06:53:54;;;;;;;13.02;4.18;;;12.30;99.90;;;;;;5128261;28;20031;-74
2024/04/03 06:56:20;;;;;;;7.32;3.40;;;12.30;99.90;;;;;;5129401;28;20110;-74
2024/04/03 06:58:46;;;;;;;5.35;3.13;;;12.30;99.90;;;;;;5127389;28;20110;-74
2024/04/03 07:01:12;;;;;;;8.55;4.05;;;12.40;99.90;;;;;;5130837;27;20039;-74
2024/04/03 07:03:38;;;;;;;8.98;3.60;;;12.30;99.90;;;;;;5132214;27;20026;-73
2024/04/03 07:06:05;;;;;;;6.65;3.15;;;12.40;99.90;;;;;;5134547;27;20037;-74
2024/04/03 07:08:32;;;;;;;6.75;3.25;;;12.30;99.90;;;;;;5125704;27;20020;-74
2024/04/03 07:10:58;;;;;;;6.13;2.63;;;12.40;99.90;;;;;;5116101;27;20065;-74
2024/04/03 07:13:24;;;;;;;7.03;3.05;;;12.30;99.90;;;;;;5122886;27;20023;-74
2024/04/03 07:15:56;;;;;;;8.00;3.40;;;12.30;99.90;;;;;;5115661;27;20702;-74
2024/04/03 07:18:22;;;;;;;7.35;2.80;;;12.30;99.90;;;;;;5106672;27;20378;-74
2024/04/03 07:20:56;;;;;;;10.85;2.65;;;12.30;99.90;;;;;;5131366;27;20031;-75
2024/04/03 07:23:27;;;;;;;7.25;2.15;;;12.30;99.90;;;;;;5107778;27;20460;-74
2024/04/03 07:25:55;;;;;;;7.45;2.65;;;12.30;99.90;;;;;;5111709;27;20114;-74
2024/04/03 07:28:21;;;;;;;6.18;2.67;;;12.30;99.90;;;;;;5135516;27;20023;-74
2024/04/03 07:30:46;;;;;;;4.97;2.10;;;12.40;99.90;;;;;;5114694;27;20491;-74
2024/04/03 07:33:12;;;;;;;9.63;2.45;;;12.40;99.90;;;;;;5118594;27;20027;-74
2024/04/03 07:35:38;;;;;;;10.60;7.10;;;12.30;99.90;;;;;;5132323;27;20058;-75
2024/04/03 07:38:05;;;;;;;5.22;2.50;;;12.30;99.90;;;;;;5135208;27;20053;-75
2024/04/03 07:40:30;;;;;;;6.47;2.28;;;12.30;99.90;;;;;;5102784;27;20509;-75
2024/04/03 07:42:56;;;;;;;6.95;1.95;;;12.30;99.90;;;;;;5097496;28;20031;-74
2024/04/03 07:45:22;;;;;;;4.72;2.15;;;12.30;99.90;;;;;;5129925;27;20062;-74
2024/04/03 07:47:48;;;;;;;6.05;2.30;;;12.40;99.90;;;;;;5124999;27;20038;-74
2024/04/03 07:50:15;;;;;;;5.80;2.45;;;12.50;99.90;;;;;;5117113;27;20048;-74
2024/04/03 07:52:41;;;;;;;4.25;2.08;;;12.50;99.90;;;;;;5135278;27;20024;-73
2024/04/03 07:55:08;;;;;;;4.78;1.77;;;12.50;99.90;;;;;;5116335;27;20439;-74
2024/04/03 07:57:34;;;;;;;5.30;2.00;;;12.50;99.90;;;;;;5116792;27;20034;-74
2024/04/03 08:00:03;;;;;;;5.55;1.90;;;12.50;99.90;;;;;;5134797;27;20059;-74
2024/04/03 08:02:29;;;;;;;5.90;2.05;;;12.70;99.90;;;;;;5117098;27;20490;-74
2024/04/03 08:04:54;;;;;;;4.95;1.90;;;12.60;99.90;;;;;;5134501;27;20023;-74
2024/04/03 08:07:20;;;;;;;2.75;1.50;;;12.60;99.90;;;;;;5116455;27;20015;-74
2024/04/03 08:09:46;;;;;;;5.10;2.25;;;12.60;99.90;;;;;;5134749;27;20403;-74
2024/04/03 08:12:11;;;;;;;12.60;1.92;;;12.60;99.90;;;;;;5134373;27;20405;-74
2024/04/03 08:14:37;;;;;;;4.80;1.67;;;12.60;99.90;;;;;;5130966;27;20426;-73
2024/04/03 08:17:03;;;;;;;4.82;1.52;;;12.60;99.90;;;;;;5116469;27;20118;-74
2024/04/03 08:19:28;;;;;;;4.78;1.63;;;12.60;99.90;;;;;;5120127;27;20108;-75
2024/04/03 08:21:54;;;;;;;5.30;1.45;;;12.70;99.90;;;;;;5134492;27;20015;-74
2024/04/03 08:24:20;;;;;;;5.45;1.88;;;12.70;99.90;;;;;;5116037;27;20410;-74
2024/04/03 08:26:45;;;;;;;5.78;1.80;;;12.70;99.90;;;;;;5134222;27;20372;-75
2024/04/03 08:29:12;;;;;;;4.03;2.00;;;12.70;99.90;;;;;;5091243;27;20473;-74
2024/04/03 08:31:38;;;;;;;3.03;1.85;;;12.70;99.90;;;;;;5135067;27;20068;-74
2024/04/03 08:34:04;;;;;;;7.03;1.90;;;12.70;99.90;;;;;;5133714;27;20023;-75
2024/04/03 08:36:30;;;;;;;3.20;1.50;;;12.70;99.90;;;;;;5133932;27;20486;-74
2024/04/03 08:38:55;;;;;;;3.60;1.70;;;12.80;99.90;;;;;;5114952;27;20468;-75
2024/04/03 08:41:21;;;;;;;2.45;1.88;;;12.90;99.90;;;;;;5132050;27;20399;-74
2024/04/03 08:43:51;;;;;;;5.13;1.90;;;12.90;99.90;;;;;;5127998;27;20019;-75
2024/04/03 08:46:18;;;;;;;4.80;2.30;;;13.00;99.90;;;;;;5122695;27;20020;-75
2024/04/03 08:48:46;;;;;;;5.88;2.20;;;13.10;99.90;;;;;;5125366;27;20031;-79
2024/04/03 08:51:14;;;;;;;2.47;1.65;;;13.10;99.90;;;;;;5123784;27;20011;-75
2024/04/03 08:53:42;;;;;;;5.57;1.92;;;13.20;99.90;;;;;;5096052;27;20027;-75
2024/04/03 08:56:09;;;;;;;4.43;1.92;;;13.30;99.90;;;;;;5133371;27;20606;-75
2024/04/03 08:58:35;;;;;;;4.03;1.80;;;13.30;99.90;;;;;;5128940;27;20023;-75
2024/04/03 09:01:02;;;;;;;4.53;1.65;;;13.30;99.90;;;;;;5102410;27;20049;-75
2024/04/03 09:03:28;;;;;;;8.45;1.90;;;13.40;99.90;;;;;;5115527;27;20024;-76
2024/04/03 09:05:53;;;;;;;4.55;1.70;;;13.50;99.90;;;;;;5122021;27;20110;-75
2024/04/03 09:08:20;;;;;;;3.03;1.40;;;13.60;99.90;;;;;;5114804;27;20019;-76
2024/04/03 09:10:50;;;;;;;3.22;1.40;;;13.70;99.90;;;;;;5133819;27;20027;-76
2024/04/03 09:13:16;;;;;;;2.17;1.50;;;13.80;99.90;;;;;;5133267;27;20045;-76
2024/04/03 09:15:42;;;;;;;4.38;1.70;;;13.90;99.90;;;;;;5133824;27;20023;-76
2024/04/03 09:18:11;;;;;;;5.57;1.60;;;13.80;99.90;;;;;;5133062;27;20023;-76
2024/04/03 09:20:41;;;;;;;3.60;1.55;;;13.80;99.90;;;;;;5105893;28;20496;-77
2024/04/03 09:23:09;;;;;;;5.05;1.85;;;13.90;99.90;;;;;;5100429;27;20019;-79
2024/04/03 09:25:36;;;;;;;2.80;1.45;;;13.80;99.90;;;;;;5114427;27;20058;-77
2024/04/03 09:28:07;;;;;;;1.42;1.27;;;13.70;99.90;;;;;;5132763;27;20026;-76
2024/04/03 09:30:34;;;;;;;5.70;1.20;;;13.70;99.90;;;;;;5133105;27;20027;-77
2024/04/03 09:33:04;;;;;;;2.83;1.42;;;13.70;99.90;;;;;;5133297;27;20024;-77
2024/04/03 09:35:32;;;;;;;1.73;1.10;;;13.70;99.90;;;;;;5114910;27;20027;-77
2024/04/03 09:37:59;;;;;;;1.45;1.15;;;13.80;99.90;;;;;;5133165;27;20467;-77
2024/04/03 09:40:29;;;;;;;2.70;1.30;;;13.90;99.90;;;;;;5133333;27;20035;-77
2024/04/03 09:43:02;;;;;;;2.25;1.38;;;14.00;99.90;;;;;;5132995;27;20047;-77
2024/04/03 09:45:29;;;;;;;3.75;1.20;;;14.00;99.90;;;;;;5132376;27;20027;-77
2024/04/03 09:48:08;;;;;;;4.45;1.13;;;14.00;99.90;;;;;;5132809;27;20041;-77
2024/04/03 09:50:44;;;;;;;1.10;0.80;;;14.10;99.90;;;;;;5125873;27;20019;-78
2024/04/03 09:53:19;;;;;;;1.77;1.10;;;14.10;99.90;;;;;;5113961;27;20019;-78
2024/04/03 09:55:47;;;;;;;1.25;0.80;;;14.00;99.90;;;;;;5130936;27;20020;-78
2024/04/03 09:58:15;;;;;;;1.92;1.20;;;14.10;99.90;;;;;;5122729;27;20027;-78
2024/04/03 10:00:50;;;;;;;2.03;1.10;;;14.10;99.90;;;;;;5132705;27;20114;-79
2024/04/03 10:03:27;;;;;;;4.32;0.88;;;14.10;99.90;;;;;;5132658;27;20105;-78
2024/04/03 10:06:00;;;;;;;1.55;1.00;;;14.20;99.90;;;;;;5131793;28;20050;-79
2024/04/03 10:08:51;;;;;;;3.08;1.02;;;14.30;99.90;;;;;;5107210;28;20131;-79
2024/04/03 10:11:17;;;;;;;1.77;1.02;;;14.30;99.90;;;;;;5132368;28;20024;-78
2024/04/03 10:13:47;;;;;;;1.05;0.93;;;14.40;99.90;;;;;;5133139;28;20015;-79
2024/04/03 10:16:14;;;;;;;2.22;0.90;;;14.40;99.90;;;;;;5132405;28;20104;-80
2024/04/03 10:18:58;;;;;;;5.18;1.10;;;14.50;99.90;;;;;;5120441;28;20043;-79
2024/04/03 10:21:25;;;;;;;2.05;0.80;;;14.40;99.90;;;;;;5120937;28;20047;-79
2024/04/03 10:23:54;;;;;;;0.85;0.50;;;14.50;99.90;;;;;;5121545;28;20026;-79
2024/04/03 10:26:20;;;;;;;1.63;0.63;;;14.50;99.90;;;;;;5132510;27;20030;-79
2024/04/03 10:28:46;;;;;;;1.77;1.15;;;14.50;99.90;;;;;;5132778;28;20016;-79
2024/04/03 10:31:20;;;;;;;0.93;0.73;;;14.50;99.90;;;;;;5132808;28;20069;-79
2024/04/03 10:33:50;;;;;;;2.28;0.65;;;14.50;99.90;;;;;;5124156;28;20069;-79
2024/04/03 10:36:19;;;;;;;0.70;0.70;;;14.50;99.90;;;;;;5109254;28;20016;-80
2024/04/03 10:38:45;;;;;;;1.02;0.57;;;14.50;99.90;;;;;;5133381;27;20467;-79
2024/04/03 10:41:12;;;;;;;0.60;0.57;;;14.50;99.90;;;;;;5136980;27;20039;-79
2024/04/03 10:43:38;;;;;;;0.55;0.55;;;14.40;99.90;;;;;;5136218;27;20021;-80
2024/04/03 10:46:05;;;;;;;1.67;0.77;;;14.40;99.90;;;;;;5118196;27;20124;-80
2024/04/03 10:48:31;;;;;;;0.75;0.75;;;14.40;99.90;;;;;;5135979;27;20019;-79
2024/04/03 10:50:57;;;;;;;5.15;1.40;;;14.40;99.90;;;;;;5129216;27;20072;-80
2024/04/03 10:53:24;;;;;;;3.55;1.70;;;14.40;99.90;;;;;;5126233;27;20024;-80
2024/04/03 10:55:50;;;;;;;3.28;1.30;;;14.50;99.90;;;;;;5133490;27;20027;-79
2024/04/03 10:58:16;;;;;;;3.08;1.40;;;14.50;99.90;;;;;;5136073;27;20395;-80
2024/04/03 11:00:45;;;;;;;2.95;1.38;;;14.40;99.90;;;;;;5117902;27;20035;-80
2024/04/03 11:03:11;;;;;;;1.80;1.10;;;14.50;99.90;;;;;;5127467;27;20368;-80
2024/04/03 11:05:38;;;;;;;0.80;0.77;;;14.50;99.90;;;;;;5109147;27;20028;-80
2024/04/03 11:08:12;;;;;;;1.73;0.70;;;14.50;99.90;;;;;;5114394;27;20049;-81
2024/04/03 11:10:38;;;;;;;1.08;1.08;;;14.30;99.90;;;;;;5118956;27;20020;-80
2024/04/03 11:13:13;;;;;;;0.55;0.52;;;14.40;99.90;;;;;;5114476;28;20088;-81
2024/04/03 11:15:39;;;;;;;3.17;0.70;;;14.40;99.90;;;;;;5133165;27;20014;-82
2024/04/03 11:18:05;;;;;;;1.75;0.70;;;14.50;99.90;;;;;;5114353;27;20027;-82
2024/04/03 11:20:34;;;;;;;1.50;1.00;;;14.50;99.90;;;;;;5131657;27;20373;-82
2024/04/03 11:23:00;;;;;;;1.42;0.90;;;14.50;99.90;;;;;;5110685;28;20472;-81
2024/04/03 11:25:30;;;;;;;0.82;0.70;;;14.60;99.90;;;;;;5117680;27;20094;-83
2024/04/03 11:28:00;;;;;;;1.10;1.00;;;14.60;99.90;;;;;;5120359;27;20030;-76
2024/04/03 11:30:26;;;;;;;1.42;1.02;;;14.50;99.90;;;;;;5135445;27;20019;-78
2024/04/03 11:32:52;;;;;;;2.38;0.80;;;14.60;99.90;;;;;;5129492;27;20024;-81
2024/04/03 11:35:18;;;;;;;1.58;1.10;;;14.50;99.90;;;;;;5112266;27;20051;-78
2024/04/03 11:37:44;;;;;;;1.33;0.88;;;14.40;99.90;;;;;;5135604;27;20066;-80
2024/04/03 11:40:10;;;;;;;1.20;0.70;;;14.40;99.90;;;;;;5135082;27;20035;-82
2024/04/03 11:42:36;;;;;;;1.27;0.70;;;14.40;99.90;;;;;;5135549;27;20019;-77
2024/04/03 11:45:04;;;;;;;0.85;0.50;;;14.40;99.90;;;;;;5117227;27;20027;-82
2024/04/03 11:47:33;;;;;;;0.77;0.63;;;14.50;99.90;;;;;;5134210;27;20026;-78
2024/04/03 11:50:03;;;;;;;2.80;0.80;;;14.50;99.90;;;;;;5135537;27;20106;-81
2024/04/03 11:52:30;;;;;;;1.20;1.05;;;14.40;99.90;;;;;;5134721;27;20090;-83
2024/04/03 11:54:55;;;;;;;1.33;0.60;;;14.50;99.90;;;;;;5113065;27;20074;-81
2024/04/03 11:57:22;;;;;;;0.70;0.70;;;14.50;99.90;;;;;;5128765;27;20019;-81
2024/04/03 11:59:48;;;;;;;1.88;0.60;;;14.50;99.90;;;;;;5137258;27;20040;-81
2024/04/03 12:02:14;;;;;;;2.15;0.80;;;14.40;99.90;;;;;;5117619;27;20047;-80
2024/04/03 12:04:41;;;;;;;0.80;0.80;;;14.40;99.90;;;;;;5136080;27;20027;-82
2024/04/03 12:07:08;;;;;;;2.00;1.02;;;14.50;99.90;;;;;;5102629;27;20067;-84
2024/04/03 12:09:34;;;;;;;1.15;1.02;;;14.60;99.90;;;;;;5117123;27;20602;-80
2024/04/03 12:11:59;;;;;;;2.00;1.13;;;14.60;99.90;;;;;;5134494;27;20027;-80
2024/04/03 12:14:25;;;;;;;1.02;0.93;;;14.70;99.90;;;;;;5129289;27;20476;-81
2024/04/03 12:16:55;;;;;;;1.98;1.23;;;14.70;99.90;;;;;;5134097;27;20023;-82
2024/04/03 12:19:29;;;;;;;4.80;1.20;;;14.70;99.90;;;;;;5134181;27;20467;-81
2024/04/03 12:21:55;;;;;;;1.15;0.98;;;14.80;99.90;;;;;;5134620;27;20031;-81
2024/04/03 12:24:22;;;;;;;1.73;1.40;;;14.80;99.90;;;;;;5134919;27;20021;-81
2024/04/03 12:26:48;;;;;;;2.40;1.50;;;14.90;99.90;;;;;;5122956;27;20373;-81
2024/04/03 12:29:16;;;;;;;1.15;1.05;;;15.00;99.90;;;;;;5132356;27;20023;-81
2024/04/03 12:31:45;;;;;;;1.40;1.30;;;15.10;99.90;;;;;;5134944;27;20054;-82
2024/04/03 12:34:11;;;;;;;1.00;1.00;;;15.30;99.90;;;;;;5134217;27;20011;-82
2024/04/03 12:36:37;;;;;;;1.45;1.23;;;15.40;99.90;;;;;;5116194;27;20165;-81
2024/04/03 12:39:08;;;;;;;1.25;1.15;;;15.70;99.90;;;;;;5114006;27;20046;-82
2024/04/03 12:41:35;;;;;;;1.75;0.75;;;15.60;99.90;;;;;;5105909;27;20023;-82
2024/04/03 12:44:01;;;;;;;0.88;0.88;;;15.60;99.90;;;;;;5134890;27;20027;-83